sensor_id;sensor_type;location;lat;lon;timestamp;P1;durP1;ratioP1;P2;durP2;ratioP2
15929;SDS011;8064;51.142;4.780;2023-02-28T00:01:40;7.93;;;4.23;;
15929;SDS011;8064;51.142;4.780;2023-02-28T00:04:06;6.63;;;4.00;;
15929;SDS011;8064;51.142;4.780;2023-02-28T00:06:34;8.03;;;4.87;;
15929;SDS011;8064;51.142;4.780;2023-02-28T00:09:00;7.87;;;4.50;;
15929;SDS011;8064;51.142;4.780;2023-02-28T00:11:25;7.53;;;4.13;;
15929;SDS011;8064;51.142;4.780;2023-02-28T00:13:51;5.67;;;3.93;;
15929;SDS011;8064;51.142;4.780;2023-02-28T00:16:18;5.37;;;4.00;;
15929;SDS011;8064;51.142;4.780;2023-02-28T00:18:46;9.67;;;4.07;;
15929;SDS011;8064;51.142;4.780;2023-02-28T00:21:13;7.03;;;3.90;;
15929;SDS011;8064;51.142;4.780;2023-02-28T00:23:39;7.13;;;4.13;;
15929;SDS011;8064;51.142;4.780;2023-02-28T00:26:05;6.83;;;4.27;;
15929;SDS011;8064;51.142;4.780;2023-02-28T00:28:31;4.97;;;3.70;;
15929;SDS011;8064;51.142;4.780;2023-02-28T00:30:57;6.87;;;4.27;;
15929;SDS011;8064;51.142;4.780;2023-02-28T00:33:24;4.77;;;3.93;;
15929;SDS011;8064;51.142;4.780;2023-02-28T00:35:51;5.47;;;4.07;;
15929;SDS011;8064;51.142;4.780;2023-02-28T00:38:16;10.67;;;4.77;;
15929;SDS011;8064;51.142;4.780;2023-02-28T00:40:42;5.00;;;3.90;;
15929;SDS011;8064;51.142;4.780;2023-02-28T00:43:08;5.97;;;3.87;;
15929;SDS011;8064;51.142;4.780;2023-02-28T00:45:34;5.80;;;4.60;;
15929;SDS011;8064;51.142;4.780;2023-02-28T00:47:59;5.90;;;4.30;;
15929;SDS011;8064;51.142;4.780;2023-02-28T00:50:25;7.50;;;4.60;;
15929;SDS011;8064;51.142;4.780;2023-02-28T00:52:51;4.83;;;4.10;;
15929;SDS011;8064;51.142;4.780;2023-02-28T00:55:17;7.63;;;4.53;;
15929;SDS011;8064;51.142;4.780;2023-02-28T00:57:43;7.90;;;4.27;;
15929;SDS011;8064;51.142;4.780;2023-02-28T01:00:09;9.23;;;4.23;;
15929;SDS011;8064;51.142;4.780;2023-02-28T01:02:36;6.13;;;4.10;;
15929;SDS011;8064;51.142;4.780;2023-02-28T01:05:01;6.70;;;4.37;;
15929;SDS011;8064;51.142;4.780;2023-02-28T01:07:28;6.23;;;4.30;;
15929;SDS011;8064;51.142;4.780;2023-02-28T01:09:54;7.70;;;4.33;;
15929;SDS011;8064;51.142;4.780;2023-02-28T01:12:20;6.20;;;4.63;;
15929;SDS011;8064;51.142;4.780;2023-02-28T01:14:45;5.53;;;4.37;;
15929;SDS011;8064;51.142;4.780;2023-02-28T01:17:11;6.67;;;4.07;;
15929;SDS011;8064;51.142;4.780;2023-02-28T01:19:37;6.60;;;4.83;;
15929;SDS011;8064;51.142;4.780;2023-02-28T01:22:03;6.37;;;3.97;;
15929;SDS011;8064;51.142;4.780;2023-02-28T01:24:30;5.43;;;4.30;;
15929;SDS011;8064;51.142;4.780;2023-02-28T01:26:56;5.77;;;4.40;;
15929;SDS011;8064;51.142;4.780;2023-02-28T01:29:21;6.67;;;4.40;;
15929;SDS011;8064;51.142;4.780;2023-02-28T01:31:47;7.27;;;4.50;;
15929;SDS011;8064;51.142;4.780;2023-02-28T01:34:13;4.63;;;3.97;;
15929;SDS011;8064;51.142;4.780;2023-02-28T01:36:39;5.90;;;4.60;;
15929;SDS011;8064;51.142;4.780;2023-02-28T01:39:04;6.53;;;4.70;;
15929;SDS011;8064;51.142;4.780;2023-02-28T01:41:31;10.57;;;5.07;;
15929;SDS011;8064;51.142;4.780;2023-02-28T01:44:01;6.33;;;4.93;;
15929;SDS011;8064;51.142;4.780;2023-02-28T01:46:46;8.63;;;4.83;;
15929;SDS011;8064;51.142;4.780;2023-02-28T01:49:12;5.80;;;5.23;;
15929;SDS011;8064;51.142;4.780;2023-02-28T01:51:42;7.67;;;4.83;;
15929;SDS011;8064;51.142;4.780;2023-02-28T01:54:18;9.07;;;4.70;;
15929;SDS011;8064;51.142;4.780;2023-02-28T01:56:49;8.10;;;4.77;;
15929;SDS011;8064;51.142;4.780;2023-02-28T01:59:22;8.67;;;5.03;;
15929;SDS011;8064;51.142;4.780;2023-02-28T02:01:52;9.00;;;4.67;;
15929;SDS011;8064;51.142;4.780;2023-02-28T02:04:18;5.73;;;4.33;;
15929;SDS011;8064;51.142;4.780;2023-02-28T02:06:46;6.83;;;4.73;;
15929;SDS011;8064;51.142;4.780;2023-02-28T02:09:13;6.83;;;5.27;;
15929;SDS011;8064;51.142;4.780;2023-02-28T02:11:39;8.17;;;4.97;;
15929;SDS011;8064;51.142;4.780;2023-02-28T02:30:25;8.67;;;4.53;;
15929;SDS011;8064;51.142;4.780;2023-02-28T02:35:53;6.57;;;4.80;;
15929;SDS011;8064;51.142;4.780;2023-02-28T02:41:12;5.17;;;4.63;;
15929;SDS011;8064;51.142;4.780;2023-02-28T02:43:57;7.03;;;4.70;;
15929;SDS011;8064;51.142;4.780;2023-02-28T02:46:41;7.93;;;4.60;;
15929;SDS011;8064;51.142;4.780;2023-02-28T02:49:10;8.03;;;5.00;;
15929;SDS011;8064;51.142;4.780;2023-02-28T02:51:41;8.07;;;5.27;;
15929;SDS011;8064;51.142;4.780;2023-02-28T02:54:20;9.20;;;5.50;;
15929;SDS011;8064;51.142;4.780;2023-02-28T02:56:54;7.47;;;4.90;;
15929;SDS011;8064;51.142;4.780;2023-02-28T02:59:23;5.97;;;4.20;;
15929;SDS011;8064;51.142;4.780;2023-02-28T03:01:53;7.83;;;4.97;;
15929;SDS011;8064;51.142;4.780;2023-02-28T03:04:23;6.50;;;5.33;;
15929;SDS011;8064;51.142;4.780;2023-02-28T03:06:51;8.03;;;5.00;;
15929;SDS011;8064;51.142;4.780;2023-02-28T03:09:20;8.50;;;5.27;;
15929;SDS011;8064;51.142;4.780;2023-02-28T03:11:48;6.27;;;5.00;;
15929;SDS011;8064;51.142;4.780;2023-02-28T03:14:30;6.50;;;5.00;;
15929;SDS011;8064;51.142;4.780;2023-02-28T03:25:28;6.37;;;4.60;;
15929;SDS011;8064;51.142;4.780;2023-02-28T03:31:01;10.77;;;4.90;;
15929;SDS011;8064;51.142;4.780;2023-02-28T03:33:38;7.10;;;4.77;;
15929;SDS011;8064;51.142;4.780;2023-02-28T03:38:36;6.73;;;4.97;;
15929;SDS011;8064;51.142;4.780;2023-02-28T03:41:08;5.60;;;4.53;;
15929;SDS011;8064;51.142;4.780;2023-02-28T03:43:40;6.80;;;5.13;;
15929;SDS011;8064;51.142;4.780;2023-02-28T03:46:10;8.10;;;5.10;;
15929;SDS011;8064;51.142;4.780;2023-02-28T03:51:08;8.23;;;5.10;;
15929;SDS011;8064;51.142;4.780;2023-02-28T03:53:39;7.50;;;4.63;;
15929;SDS011;8064;51.142;4.780;2023-02-28T04:02:00;6.60;;;4.60;;
15929;SDS011;8064;51.142;4.780;2023-02-28T04:04:27;6.00;;;4.27;;
15929;SDS011;8064;51.142;4.780;2023-02-28T04:07:00;8.33;;;5.03;;
15929;SDS011;8064;51.142;4.780;2023-02-28T04:09:28;7.23;;;4.63;;
15929;SDS011;8064;51.142;4.780;2023-02-28T04:11:54;7.77;;;4.50;;
15929;SDS011;8064;51.142;4.780;2023-02-28T04:14:21;6.63;;;4.70;;
15929;SDS011;8064;51.142;4.780;2023-02-28T04:16:47;5.03;;;4.47;;
15929;SDS011;8064;51.142;4.780;2023-02-28T04:19:14;6.53;;;4.70;;
15929;SDS011;8064;51.142;4.780;2023-02-28T04:21:41;7.33;;;5.03;;
15929;SDS011;8064;51.142;4.780;2023-02-28T04:24:10;6.47;;;5.17;;
15929;SDS011;8064;51.142;4.780;2023-02-28T04:26:40;5.43;;;4.53;;
15929;SDS011;8064;51.142;4.780;2023-02-28T04:29:09;8.50;;;4.93;;
15929;SDS011;8064;51.142;4.780;2023-02-28T04:31:35;7.60;;;5.10;;
15929;SDS011;8064;51.142;4.780;2023-02-28T04:34:01;8.00;;;5.10;;
15929;SDS011;8064;51.142;4.780;2023-02-28T04:36:27;6.40;;;4.87;;
15929;SDS011;8064;51.142;4.780;2023-02-28T04:38:54;6.37;;;4.90;;
15929;SDS011;8064;51.142;4.780;2023-02-28T04:41:20;6.03;;;4.50;;
15929;SDS011;8064;51.142;4.780;2023-02-28T04:43:47;7.20;;;4.57;;
15929;SDS011;8064;51.142;4.780;2023-02-28T04:46:13;5.73;;;5.03;;
15929;SDS011;8064;51.142;4.780;2023-02-28T04:48:40;5.40;;;4.43;;
15929;SDS011;8064;51.142;4.780;2023-02-28T04:51:08;7.53;;;5.10;;
15929;SDS011;8064;51.142;4.780;2023-02-28T04:53:36;9.93;;;5.00;;
15929;SDS011;8064;51.142;4.780;2023-02-28T04:56:02;6.77;;;4.83;;
15929;SDS011;8064;51.142;4.780;2023-02-28T04:58:28;7.43;;;4.60;;
15929;SDS011;8064;51.142;4.780;2023-02-28T05:00:57;6.40;;;4.80;;
15929;SDS011;8064;51.142;4.780;2023-02-28T05:03:27;10.53;;;5.20;;
15929;SDS011;8064;51.142;4.780;2023-02-28T05:05:53;7.63;;;5.47;;
15929;SDS011;8064;51.142;4.780;2023-02-28T05:08:19;6.03;;;4.80;;
15929;SDS011;8064;51.142;4.780;2023-02-28T05:10:45;8.43;;;4.90;;
15929;SDS011;8064;51.142;4.780;2023-02-28T05:13:11;8.43;;;4.87;;
15929;SDS011;8064;51.142;4.780;2023-02-28T05:15:37;10.37;;;5.17;;
15929;SDS011;8064;51.142;4.780;2023-02-28T05:18:03;6.17;;;4.73;;
15929;SDS011;8064;51.142;4.780;2023-02-28T05:20:29;7.70;;;4.77;;
15929;SDS011;8064;51.142;4.780;2023-02-28T05:22:55;7.97;;;4.87;;
15929;SDS011;8064;51.142;4.780;2023-02-28T05:25:23;6.20;;;4.90;;
15929;SDS011;8064;51.142;4.780;2023-02-28T05:27:48;8.83;;;5.27;;
15929;SDS011;8064;51.142;4.780;2023-02-28T05:30:14;6.90;;;4.87;;
15929;SDS011;8064;51.142;4.780;2023-02-28T05:32:40;7.37;;;5.33;;
15929;SDS011;8064;51.142;4.780;2023-02-28T05:35:08;7.37;;;5.07;;
15929;SDS011;8064;51.142;4.780;2023-02-28T05:37:36;7.50;;;4.93;;
15929;SDS011;8064;51.142;4.780;2023-02-28T05:40:03;7.07;;;5.00;;
15929;SDS011;8064;51.142;4.780;2023-02-28T05:42:31;8.00;;;4.77;;
15929;SDS011;8064;51.142;4.780;2023-02-28T05:44:57;8.57;;;5.23;;
15929;SDS011;8064;51.142;4.780;2023-02-28T05:47:23;6.10;;;4.43;;
15929;SDS011;8064;51.142;4.780;2023-02-28T05:49:48;7.17;;;4.77;;
15929;SDS011;8064;51.142;4.780;2023-02-28T05:52:14;6.90;;;5.00;;
15929;SDS011;8064;51.142;4.780;2023-02-28T05:54:40;9.27;;;4.77;;
15929;SDS011;8064;51.142;4.780;2023-02-28T05:57:06;5.90;;;4.27;;
15929;SDS011;8064;51.142;4.780;2023-02-28T05:59:32;7.27;;;4.67;;
15929;SDS011;8064;51.142;4.780;2023-02-28T06:01:58;6.70;;;4.73;;
15929;SDS011;8064;51.142;4.780;2023-02-28T06:04:23;8.97;;;4.23;;
15929;SDS011;8064;51.142;4.780;2023-02-28T06:06:50;6.70;;;5.00;;
15929;SDS011;8064;51.142;4.780;2023-02-28T06:09:16;8.07;;;4.80;;
15929;SDS011;8064;51.142;4.780;2023-02-28T06:11:42;7.70;;;5.10;;
15929;SDS011;8064;51.142;4.780;2023-02-28T06:16:53;6.27;;;4.80;;
15929;SDS011;8064;51.142;4.780;2023-02-28T06:19:19;7.97;;;5.00;;
15929;SDS011;8064;51.142;4.780;2023-02-28T06:21:45;9.83;;;4.77;;
15929;SDS011;8064;51.142;4.780;2023-02-28T06:24:15;11.43;;;5.73;;
15929;SDS011;8064;51.142;4.780;2023-02-28T06:26:41;7.80;;;4.40;;
15929;SDS011;8064;51.142;4.780;2023-02-28T06:29:07;6.83;;;4.60;;
15929;SDS011;8064;51.142;4.780;2023-02-28T06:31:33;8.80;;;5.20;;
15929;SDS011;8064;51.142;4.780;2023-02-28T06:33:59;5.40;;;4.13;;
15929;SDS011;8064;51.142;4.780;2023-02-28T06:36:25;7.43;;;4.50;;
15929;SDS011;8064;51.142;4.780;2023-02-28T06:38:51;5.07;;;4.53;;
15929;SDS011;8064;51.142;4.780;2023-02-28T06:41:20;8.67;;;4.70;;
15929;SDS011;8064;51.142;4.780;2023-02-28T06:43:47;5.83;;;4.37;;
15929;SDS011;8064;51.142;4.780;2023-02-28T06:46:13;10.07;;;4.33;;
15929;SDS011;8064;51.142;4.780;2023-02-28T06:48:39;6.57;;;4.77;;
15929;SDS011;8064;51.142;4.780;2023-02-28T06:51:06;6.57;;;4.87;;
15929;SDS011;8064;51.142;4.780;2023-02-28T06:53:34;5.67;;;4.53;;
15929;SDS011;8064;51.142;4.780;2023-02-28T06:58:45;7.13;;;4.93;;
15929;SDS011;8064;51.142;4.780;2023-02-28T07:01:13;12.40;;;4.73;;
15929;SDS011;8064;51.142;4.780;2023-02-28T07:03:40;7.97;;;5.10;;
15929;SDS011;8064;51.142;4.780;2023-02-28T07:06:06;7.03;;;4.70;;
15929;SDS011;8064;51.142;4.780;2023-02-28T07:08:32;6.90;;;4.27;;
15929;SDS011;8064;51.142;4.780;2023-02-28T07:10:58;8.20;;;4.10;;
15929;SDS011;8064;51.142;4.780;2023-02-28T07:13:24;6.30;;;4.40;;
15929;SDS011;8064;51.142;4.780;2023-02-28T07:16:03;7.43;;;4.60;;
15929;SDS011;8064;51.142;4.780;2023-02-28T07:18:31;6.87;;;4.50;;
15929;SDS011;8064;51.142;4.780;2023-02-28T07:20:57;9.03;;;4.53;;
15929;SDS011;8064;51.142;4.780;2023-02-28T07:23:23;9.53;;;4.60;;
15929;SDS011;8064;51.142;4.780;2023-02-28T07:25:49;9.33;;;4.60;;
15929;SDS011;8064;51.142;4.780;2023-02-28T07:28:16;9.23;;;4.90;;
15929;SDS011;8064;51.142;4.780;2023-02-28T07:30:42;5.47;;;4.03;;
15929;SDS011;8064;51.142;4.780;2023-02-28T07:33:08;5.70;;;4.17;;
15929;SDS011;8064;51.142;4.780;2023-02-28T07:35:34;6.47;;;4.33;;
15929;SDS011;8064;51.142;4.780;2023-02-28T07:38:00;9.20;;;4.40;;
15929;SDS011;8064;51.142;4.780;2023-02-28T07:40:26;6.23;;;4.27;;
15929;SDS011;8064;51.142;4.780;2023-02-28T07:42:52;8.93;;;4.47;;
15929;SDS011;8064;51.142;4.780;2023-02-28T07:45:18;12.13;;;4.40;;
15929;SDS011;8064;51.142;4.780;2023-02-28T07:47:44;6.03;;;4.40;;
15929;SDS011;8064;51.142;4.780;2023-02-28T07:50:11;9.10;;;4.67;;
15929;SDS011;8064;51.142;4.780;2023-02-28T07:52:38;5.60;;;3.77;;
15929;SDS011;8064;51.142;4.780;2023-02-28T07:55:05;6.13;;;3.90;;
15929;SDS011;8064;51.142;4.780;2023-02-28T07:57:33;6.47;;;3.90;;
15929;SDS011;8064;51.142;4.780;2023-02-28T07:59:58;6.30;;;3.73;;
15929;SDS011;8064;51.142;4.780;2023-02-28T08:02:24;4.73;;;3.40;;
15929;SDS011;8064;51.142;4.780;2023-02-28T08:04:50;5.53;;;3.40;;
15929;SDS011;8064;51.142;4.780;2023-02-28T08:07:16;6.33;;;3.40;;
15929;SDS011;8064;51.142;4.780;2023-02-28T08:09:44;4.63;;;2.80;;
15929;SDS011;8064;51.142;4.780;2023-02-28T08:12:10;3.10;;;2.67;;
15929;SDS011;8064;51.142;4.780;2023-02-28T08:14:37;4.57;;;2.70;;
15929;SDS011;8064;51.142;4.780;2023-02-28T08:17:03;5.27;;;3.13;;
15929;SDS011;8064;51.142;4.780;2023-02-28T08:19:29;3.60;;;2.83;;
15929;SDS011;8064;51.142;4.780;2023-02-28T08:21:55;4.27;;;2.77;;
15929;SDS011;8064;51.142;4.780;2023-02-28T08:24:21;4.77;;;3.00;;
15929;SDS011;8064;51.142;4.780;2023-02-28T08:26:47;5.37;;;3.60;;
15929;SDS011;8064;51.142;4.780;2023-02-28T08:29:13;6.33;;;3.30;;
15929;SDS011;8064;51.142;4.780;2023-02-28T08:31:39;3.40;;;2.43;;
15929;SDS011;8064;51.142;4.780;2023-02-28T08:34:06;4.13;;;2.60;;
15929;SDS011;8064;51.142;4.780;2023-02-28T08:36:32;3.40;;;2.23;;
15929;SDS011;8064;51.142;4.780;2023-02-28T08:38:58;3.07;;;2.30;;
15929;SDS011;8064;51.142;4.780;2023-02-28T08:41:24;3.53;;;2.37;;
15929;SDS011;8064;51.142;4.780;2023-02-28T08:43:50;5.27;;;2.60;;
15929;SDS011;8064;51.142;4.780;2023-02-28T08:46:17;4.73;;;2.43;;
15929;SDS011;8064;51.142;4.780;2023-02-28T08:48:43;2.63;;;2.17;;
15929;SDS011;8064;51.142;4.780;2023-02-28T08:51:10;4.17;;;2.20;;
15929;SDS011;8064;51.142;4.780;2023-02-28T08:53:38;3.23;;;2.10;;
15929;SDS011;8064;51.142;4.780;2023-02-28T08:56:06;3.00;;;1.93;;
15929;SDS011;8064;51.142;4.780;2023-02-28T08:58:34;3.97;;;1.80;;
15929;SDS011;8064;51.142;4.780;2023-02-28T09:01:06;3.50;;;1.90;;
15929;SDS011;8064;51.142;4.780;2023-02-28T09:03:48;2.50;;;1.63;;
15929;SDS011;8064;51.142;4.780;2023-02-28T09:06:15;3.80;;;1.80;;
15929;SDS011;8064;51.142;4.780;2023-02-28T09:08:42;3.77;;;1.87;;
15929;SDS011;8064;51.142;4.780;2023-02-28T09:11:08;2.57;;;1.97;;
15929;SDS011;8064;51.142;4.780;2023-02-28T09:13:35;3.37;;;1.73;;
15929;SDS011;8064;51.142;4.780;2023-02-28T09:16:02;1.80;;;1.33;;
15929;SDS011;8064;51.142;4.780;2023-02-28T09:18:29;2.40;;;1.60;;
15929;SDS011;8064;51.142;4.780;2023-02-28T09:20:55;3.40;;;1.77;;
15929;SDS011;8064;51.142;4.780;2023-02-28T09:23:22;1.83;;;1.50;;
15929;SDS011;8064;51.142;4.780;2023-02-28T09:25:58;2.97;;;1.50;;
15929;SDS011;8064;51.142;4.780;2023-02-28T09:28:24;3.03;;;1.83;;
15929;SDS011;8064;51.142;4.780;2023-02-28T09:30:52;3.37;;;1.87;;
15929;SDS011;8064;51.142;4.780;2023-02-28T09:33:19;2.00;;;1.60;;
15929;SDS011;8064;51.142;4.780;2023-02-28T09:35:46;3.27;;;1.87;;
15929;SDS011;8064;51.142;4.780;2023-02-28T09:38:13;5.40;;;1.63;;
15929;SDS011;8064;51.142;4.780;2023-02-28T09:43:25;1.63;;;1.37;;
15929;SDS011;8064;51.142;4.780;2023-02-28T09:46:08;2.33;;;1.60;;
15929;SDS011;8064;51.142;4.780;2023-02-28T09:48:46;2.50;;;1.50;;
15929;SDS011;8064;51.142;4.780;2023-02-28T09:54:17;2.23;;;1.50;;
15929;SDS011;8064;51.142;4.780;2023-02-28T09:56:58;2.40;;;1.20;;
15929;SDS011;8064;51.142;4.780;2023-02-28T10:05:17;1.30;;;0.93;;
15929;SDS011;8064;51.142;4.780;2023-02-28T10:10:51;1.57;;;1.17;;
15929;SDS011;8064;51.142;4.780;2023-02-28T10:16:29;1.33;;;1.00;;
15929;SDS011;8064;51.142;4.780;2023-02-28T10:24:51;2.80;;;1.30;;
15929;SDS011;8064;51.142;4.780;2023-02-28T10:27:23;1.98;;;1.05;;
15929;SDS011;8064;51.142;4.780;2023-02-28T10:29:52;4.25;;;1.20;;
15929;SDS011;8064;51.142;4.780;2023-02-28T10:32:21;2.40;;;1.48;;
15929;SDS011;8064;51.142;4.780;2023-02-28T10:34:52;1.92;;;1.40;;
15929;SDS011;8064;51.142;4.780;2023-02-28T10:37:37;2.38;;;1.40;;
15929;SDS011;8064;51.142;4.780;2023-02-28T10:40:05;2.88;;;1.20;;
15929;SDS011;8064;51.142;4.780;2023-02-28T10:42:38;1.85;;;1.40;;
15929;SDS011;8064;51.142;4.780;2023-02-28T10:50:52;1.52;;;1.15;;
15929;SDS011;8064;51.142;4.780;2023-02-28T10:56:00;1.60;;;1.50;;
15929;SDS011;8064;51.142;4.780;2023-02-28T10:58:29;2.10;;;1.35;;
15929;SDS011;8064;51.142;4.780;2023-02-28T11:01:10;2.92;;;1.90;;
15929;SDS011;8064;51.142;4.780;2023-02-28T11:03:41;3.70;;;1.73;;
15929;SDS011;8064;51.142;4.780;2023-02-28T11:06:07;2.17;;;1.70;;
15929;SDS011;8064;51.142;4.780;2023-02-28T11:08:55;2.65;;;1.70;;
15929;SDS011;8064;51.142;4.780;2023-02-28T11:11:25;2.45;;;1.80;;
15929;SDS011;8064;51.142;4.780;2023-02-28T11:13:55;3.78;;;1.80;;
15929;SDS011;8064;51.142;4.780;2023-02-28T11:16:30;2.88;;;1.90;;
15929;SDS011;8064;51.142;4.780;2023-02-28T11:18:58;2.10;;;1.90;;
15929;SDS011;8064;51.142;4.780;2023-02-28T11:21:26;3.58;;;2.08;;
15929;SDS011;8064;51.142;4.780;2023-02-28T11:23:59;2.03;;;1.90;;
15929;SDS011;8064;51.142;4.780;2023-02-28T11:26:43;1.95;;;1.75;;
15929;SDS011;8064;51.142;4.780;2023-02-28T11:29:16;4.28;;;1.67;;
15929;SDS011;8064;51.142;4.780;2023-02-28T11:31:54;2.28;;;2.08;;
15929;SDS011;8064;51.142;4.780;2023-02-28T11:34:43;2.67;;;1.40;;
15929;SDS011;8064;51.142;4.780;2023-02-28T11:37:11;2.03;;;1.65;;
15929;SDS011;8064;51.142;4.780;2023-02-28T11:39:40;1.50;;;1.40;;
15929;SDS011;8064;51.142;4.780;2023-02-28T11:47:51;2.65;;;2.00;;
15929;SDS011;8064;51.142;4.780;2023-02-28T11:50:42;2.97;;;1.70;;
15929;SDS011;8064;51.142;4.780;2023-02-28T11:53:39;2.60;;;1.40;;
15929;SDS011;8064;51.142;4.780;2023-02-28T12:10:44;2.60;;;1.67;;
15929;SDS011;8064;51.142;4.780;2023-02-28T12:16:35;1.53;;;1.23;;
15929;SDS011;8064;51.142;4.780;2023-02-28T12:19:14;1.93;;;1.30;;
15929;SDS011;8064;51.142;4.780;2023-02-28T12:22:12;1.70;;;1.37;;
15929;SDS011;8064;51.142;4.780;2023-02-28T12:27:26;2.57;;;1.40;;
15929;SDS011;8064;51.142;4.780;2023-02-28T12:35:54;1.70;;;1.20;;
15929;SDS011;8064;51.142;4.780;2023-02-28T12:38:22;1.77;;;1.33;;
15929;SDS011;8064;51.142;4.780;2023-02-28T12:40:55;1.80;;;1.20;;
15929;SDS011;8064;51.142;4.780;2023-02-28T12:43:27;2.60;;;1.10;;
15929;SDS011;8064;51.142;4.780;2023-02-28T12:45:59;1.80;;;1.50;;
15929;SDS011;8064;51.142;4.780;2023-02-28T12:48:33;1.80;;;1.47;;
15929;SDS011;8064;51.142;4.780;2023-02-28T12:51:05;1.87;;;1.20;;
15929;SDS011;8064;51.142;4.780;2023-02-28T12:56:10;1.47;;;1.10;;
15929;SDS011;8064;51.142;4.780;2023-02-28T12:58:58;2.87;;;1.40;;
15929;SDS011;8064;51.142;4.780;2023-02-28T13:01:33;3.07;;;1.50;;
15929;SDS011;8064;51.142;4.780;2023-02-28T13:09:38;2.47;;;1.40;;
15929;SDS011;8064;51.142;4.780;2023-02-28T13:12:13;1.90;;;1.50;;
15929;SDS011;8064;51.142;4.780;2023-02-28T13:14:40;1.80;;;1.30;;
15929;SDS011;8064;51.142;4.780;2023-02-28T13:19:35;2.53;;;1.67;;
15929;SDS011;8064;51.142;4.780;2023-02-28T13:24:50;2.07;;;1.40;;
15929;SDS011;8064;51.142;4.780;2023-02-28T13:30:49;2.00;;;1.50;;
15929;SDS011;8064;51.142;4.780;2023-02-28T13:33:19;3.07;;;1.70;;
15929;SDS011;8064;51.142;4.780;2023-02-28T13:35:48;2.13;;;1.50;;
15929;SDS011;8064;51.142;4.780;2023-02-28T13:41:41;2.03;;;1.40;;
15929;SDS011;8064;51.142;4.780;2023-02-28T13:44:11;4.17;;;1.80;;
15929;SDS011;8064;51.142;4.780;2023-02-28T13:51:49;1.87;;;1.60;;
15929;SDS011;8064;51.142;4.780;2023-02-28T13:54:31;2.47;;;1.60;;
15929;SDS011;8064;51.142;4.780;2023-02-28T14:05:13;2.67;;;1.70;;
15929;SDS011;8064;51.142;4.780;2023-02-28T14:07:44;2.97;;;1.87;;
15929;SDS011;8064;51.142;4.780;2023-02-28T14:16:05;1.93;;;1.40;;
15929;SDS011;8064;51.142;4.780;2023-02-28T14:18:34;3.00;;;1.87;;
15929;SDS011;8064;51.142;4.780;2023-02-28T14:21:08;2.73;;;1.40;;
15929;SDS011;8064;51.142;4.780;2023-02-28T14:26:34;2.73;;;1.80;;
15929;SDS011;8064;51.142;4.780;2023-02-28T14:35:20;2.03;;;1.60;;
15929;SDS011;8064;51.142;4.780;2023-02-28T14:38:08;2.50;;;1.90;;
15929;SDS011;8064;51.142;4.780;2023-02-28T14:40:42;2.73;;;1.80;;
15929;SDS011;8064;51.142;4.780;2023-02-28T14:45:53;2.83;;;1.80;;
15929;SDS011;8064;51.142;4.780;2023-02-28T14:48:22;3.67;;;1.67;;
15929;SDS011;8064;51.142;4.780;2023-02-28T14:50:52;3.07;;;1.60;;
15929;SDS011;8064;51.142;4.780;2023-02-28T14:53:21;2.50;;;1.67;;
15929;SDS011;8064;51.142;4.780;2023-02-28T14:55:50;3.10;;;1.67;;
15929;SDS011;8064;51.142;4.780;2023-02-28T14:58:28;5.03;;;2.13;;
15929;SDS011;8064;51.142;4.780;2023-02-28T15:00:56;5.63;;;2.07;;
15929;SDS011;8064;51.142;4.780;2023-02-28T15:06:12;2.03;;;1.73;;
15929;SDS011;8064;51.142;4.780;2023-02-28T15:08:42;2.50;;;1.90;;
15929;SDS011;8064;51.142;4.780;2023-02-28T15:11:12;3.70;;;1.70;;
15929;SDS011;8064;51.142;4.780;2023-02-28T15:13:43;3.53;;;1.80;;
15929;SDS011;8064;51.142;4.780;2023-02-28T15:16:13;2.27;;;1.70;;
15929;SDS011;8064;51.142;4.780;2023-02-28T15:18:58;3.80;;;1.70;;
15929;SDS011;8064;51.142;4.780;2023-02-28T15:21:28;4.77;;;2.10;;
15929;SDS011;8064;51.142;4.780;2023-02-28T15:24:10;2.10;;;1.60;;
15929;SDS011;8064;51.142;4.780;2023-02-28T15:26:49;3.23;;;1.73;;
15929;SDS011;8064;51.142;4.780;2023-02-28T15:29:33;5.37;;;1.90;;
15929;SDS011;8064;51.142;4.780;2023-02-28T15:32:15;4.63;;;2.10;;
15929;SDS011;8064;51.142;4.780;2023-02-28T15:43:46;3.70;;;2.23;;
15929;SDS011;8064;51.142;4.780;2023-02-28T15:46:12;5.97;;;1.93;;
15929;SDS011;8064;51.142;4.780;2023-02-28T15:48:53;1.93;;;1.70;;
15929;SDS011;8064;51.142;4.780;2023-02-28T15:51:22;3.30;;;2.00;;
15929;SDS011;8064;51.142;4.780;2023-02-28T15:56:55;3.63;;;2.47;;
15929;SDS011;8064;51.142;4.780;2023-02-28T15:59:23;3.50;;;2.20;;
15929;SDS011;8064;51.142;4.780;2023-02-28T16:02:04;5.33;;;1.93;;
15929;SDS011;8064;51.142;4.780;2023-02-28T16:04:58;2.67;;;2.23;;
15929;SDS011;8064;51.142;4.780;2023-02-28T16:07:27;3.60;;;2.40;;
15929;SDS011;8064;51.142;4.780;2023-02-28T16:09:55;3.77;;;1.90;;
15929;SDS011;8064;51.142;4.780;2023-02-28T16:12:21;2.97;;;2.03;;
15929;SDS011;8064;51.142;4.780;2023-02-28T16:14:52;5.03;;;2.10;;
15929;SDS011;8064;51.142;4.780;2023-02-28T16:17:20;3.57;;;2.30;;
15929;SDS011;8064;51.142;4.780;2023-02-28T16:19:49;2.40;;;2.20;;
15929;SDS011;8064;51.142;4.780;2023-02-28T16:22:15;2.33;;;2.00;;
15929;SDS011;8064;51.142;4.780;2023-02-28T16:24:41;3.13;;;1.67;;
15929;SDS011;8064;51.142;4.780;2023-02-28T16:27:10;6.10;;;2.10;;
15929;SDS011;8064;51.142;4.780;2023-02-28T16:29:42;4.93;;;2.00;;
15929;SDS011;8064;51.142;4.780;2023-02-28T16:32:10;4.60;;;2.17;;
15929;SDS011;8064;51.142;4.780;2023-02-28T16:34:39;2.67;;;1.97;;
15929;SDS011;8064;51.142;4.780;2023-02-28T16:37:09;4.33;;;2.37;;
15929;SDS011;8064;51.142;4.780;2023-02-28T16:39:37;2.43;;;1.80;;
15929;SDS011;8064;51.142;4.780;2023-02-28T16:42:04;6.03;;;2.07;;
15929;SDS011;8064;51.142;4.780;2023-02-28T16:44:31;3.03;;;2.20;;
15929;SDS011;8064;51.142;4.780;2023-02-28T16:46:59;5.57;;;2.00;;
15929;SDS011;8064;51.142;4.780;2023-02-28T16:49:25;3.97;;;1.80;;
15929;SDS011;8064;51.142;4.780;2023-02-28T16:51:51;2.20;;;2.00;;
15929;SDS011;8064;51.142;4.780;2023-02-28T16:54:17;2.93;;;2.03;;
15929;SDS011;8064;51.142;4.780;2023-02-28T16:56:44;4.60;;;1.90;;
15929;SDS011;8064;51.142;4.780;2023-02-28T16:59:11;2.17;;;1.87;;
15929;SDS011;8064;51.142;4.780;2023-02-28T17:01:38;3.43;;;1.90;;
15929;SDS011;8064;51.142;4.780;2023-02-28T17:04:04;3.53;;;2.00;;
15929;SDS011;8064;51.142;4.780;2023-02-28T17:06:30;2.27;;;1.80;;
15929;SDS011;8064;51.142;4.780;2023-02-28T17:08:59;7.10;;;2.00;;
15929;SDS011;8064;51.142;4.780;2023-02-28T17:11:25;4.47;;;2.10;;
15929;SDS011;8064;51.142;4.780;2023-02-28T17:13:51;4.27;;;1.80;;
15929;SDS011;8064;51.142;4.780;2023-02-28T17:16:22;5.10;;;2.20;;
15929;SDS011;8064;51.142;4.780;2023-02-28T17:18:51;2.67;;;1.90;;
15929;SDS011;8064;51.142;4.780;2023-02-28T17:21:19;3.13;;;1.97;;
15929;SDS011;8064;51.142;4.780;2023-02-28T17:23:45;3.23;;;2.33;;
15929;SDS011;8064;51.142;4.780;2023-02-28T17:26:13;3.50;;;2.30;;
15929;SDS011;8064;51.142;4.780;2023-02-28T17:28:41;3.77;;;2.10;;
15929;SDS011;8064;51.142;4.780;2023-02-28T17:31:07;2.70;;;1.93;;
15929;SDS011;8064;51.142;4.780;2023-02-28T17:33:33;2.53;;;2.20;;
15929;SDS011;8064;51.142;4.780;2023-02-28T17:35:59;6.40;;;2.50;;
15929;SDS011;8064;51.142;4.780;2023-02-28T17:38:24;4.20;;;2.50;;
15929;SDS011;8064;51.142;4.780;2023-02-28T17:40:50;4.33;;;2.23;;
15929;SDS011;8064;51.142;4.780;2023-02-28T17:43:21;3.70;;;2.40;;
15929;SDS011;8064;51.142;4.780;2023-02-28T17:45:48;3.00;;;2.10;;
15929;SDS011;8064;51.142;4.780;2023-02-28T17:48:14;5.50;;;3.03;;
15929;SDS011;8064;51.142;4.780;2023-02-28T17:50:40;4.40;;;2.57;;
15929;SDS011;8064;51.142;4.780;2023-02-28T17:53:06;2.93;;;2.33;;
15929;SDS011;8064;51.142;4.780;2023-02-28T17:55:32;2.40;;;2.20;;
15929;SDS011;8064;51.142;4.780;2023-02-28T17:57:59;2.60;;;2.17;;
15929;SDS011;8064;51.142;4.780;2023-02-28T18:00:25;3.10;;;2.40;;
15929;SDS011;8064;51.142;4.780;2023-02-28T18:02:51;3.30;;;2.20;;
15929;SDS011;8064;51.142;4.780;2023-02-28T18:05:17;4.33;;;2.17;;
15929;SDS011;8064;51.142;4.780;2023-02-28T18:07:43;4.33;;;2.57;;
15929;SDS011;8064;51.142;4.780;2023-02-28T18:10:11;5.83;;;2.90;;
15929;SDS011;8064;51.142;4.780;2023-02-28T18:12:40;3.77;;;2.43;;